sensor_id;sensor_type;location;lat;lon;timestamp;temperature;humidity
35363;DHT22;21463;47.480;8.214;2022-09-27T00:00:03;21.50;48.30
35363;DHT22;21463;47.480;8.214;2022-09-27T00:01:14;21.50;48.20
35363;DHT22;21463;47.480;8.214;2022-09-27T00:02:18;21.50;48.20
35363;DHT22;21463;47.480;8.214;2022-09-27T00:03:21;21.50;48.20
35363;DHT22;21463;47.480;8.214;2022-09-27T00:04:25;21.50;48.20
35363;DHT22;21463;47.480;8.214;2022-09-27T00:05:28;21.50;48.30
35363;DHT22;21463;47.480;8.214;2022-09-27T00:06:50;21.50;48.20
35363;DHT22;21463;47.480;8.214;2022-09-27T00:07:55;21.40;48.20
35363;DHT22;21463;47.480;8.214;2022-09-27T00:08:58;21.50;48.30
35363;DHT22;21463;47.480;8.214;2022-09-27T00:10:01;21.40;48.20
35363;DHT22;21463;47.480;8.214;2022-09-27T00:11:10;21.40;48.20
35363;DHT22;21463;47.480;8.214;2022-09-27T00:12:15;21.50;48.30
35363;DHT22;21463;47.480;8.214;2022-09-27T00:13:17;21.50;48.30
35363;DHT22;21463;47.480;8.214;2022-09-27T00:14:20;21.50;48.30
35363;DHT22;21463;47.480;8.214;2022-09-27T00:15:23;21.50;48.30
35363;DHT22;21463;47.480;8.214;2022-09-27T00:16:29;21.50;48.30
35363;DHT22;21463;47.480;8.214;2022-09-27T00:17:32;21.50;48.30
35363;DHT22;21463;47.480;8.214;2022-09-27T00:18:35;21.50;48.30
35363;DHT22;21463;47.480;8.214;2022-09-27T00:19:41;21.50;48.30
35363;DHT22;21463;47.480;8.214;2022-09-27T00:20:47;21.50;48.30
35363;DHT22;21463;47.480;8.214;2022-09-27T00:21:50;21.50;48.30
35363;DHT22;21463;47.480;8.214;2022-09-27T00:22:53;21.40;48.30
35363;DHT22;21463;47.480;8.214;2022-09-27T00:23:59;21.50;48.30
35363;DHT22;21463;47.480;8.214;2022-09-27T00:25:03;21.50;48.30
35363;DHT22;21463;47.480;8.214;2022-09-27T00:26:11;21.50;48.30
35363;DHT22;21463;47.480;8.214;2022-09-27T00:27:15;21.50;48.30
35363;DHT22;21463;47.480;8.214;2022-09-27T00:28:18;21.50;48.30
35363;DHT22;21463;47.480;8.214;2022-09-27T00:29:22;21.50;48.30
35363;DHT22;21463;47.480;8.214;2022-09-27T00:30:26;21.50;48.40
35363;DHT22;21463;47.480;8.214;2022-09-27T00:31:30;21.50;48.30
35363;DHT22;21463;47.480;8.214;2022-09-27T00:32:36;21.50;48.40
35363;DHT22;21463;47.480;8.214;2022-09-27T00:33:39;21.50;48.40
35363;DHT22;21463;47.480;8.214;2022-09-27T00:34:42;21.50;48.40
35363;DHT22;21463;47.480;8.214;2022-09-27T00:35:45;21.50;48.40
35363;DHT22;21463;47.480;8.214;2022-09-27T00:36:50;21.50;48.40
35363;DHT22;21463;47.480;8.214;2022-09-27T00:37:53;21.50;48.40
35363;DHT22;21463;47.480;8.214;2022-09-27T00:38:59;21.50;48.40
35363;DHT22;21463;47.480;8.214;2022-09-27T00:40:04;21.50;48.40
35363;DHT22;21463;47.480;8.214;2022-09-27T00:41:12;21.40;48.30
35363;DHT22;21463;47.480;8.214;2022-09-27T00:42:18;21.50;48.40
35363;DHT22;21463;47.480;8.214;2022-09-27T00:43:22;21.50;48.40
35363;DHT22;21463;47.480;8.214;2022-09-27T00:45:28;21.50;48.40
35363;DHT22;21463;47.480;8.214;2022-09-27T00:46:43;21.50;48.40
35363;DHT22;21463;47.480;8.214;2022-09-27T00:47:58;21.50;48.50
35363;DHT22;21463;47.480;8.214;2022-09-27T00:50:28;21.40;48.40
35363;DHT22;21463;47.480;8.214;2022-09-27T00:51:33;21.40;48.40
35363;DHT22;21463;47.480;8.214;2022-09-27T00:53:59;21.50;48.50
35363;DHT22;21463;47.480;8.214;2022-09-27T00:55:19;21.40;48.40
35363;DHT22;21463;47.480;8.214;2022-09-27T00:56:28;21.50;48.50
35363;DHT22;21463;47.480;8.214;2022-09-27T00:57:33;21.50;48.50
35363;DHT22;21463;47.480;8.214;2022-09-27T00:58:41;21.40;48.50
35363;DHT22;21463;47.480;8.214;2022-09-27T00:59:53;21.50;48.50
35363;DHT22;21463;47.480;8.214;2022-09-27T01:01:00;21.40;48.40
35363;DHT22;21463;47.480;8.214;2022-09-27T01:02:06;21.50;48.50
35363;DHT22;21463;47.480;8.214;2022-09-27T01:03:25;21.50;48.50
35363;DHT22;21463;47.480;8.214;2022-09-27T01:04:33;21.50;48.50
35363;DHT22;21463;47.480;8.214;2022-09-27T01:05:38;21.50;48.50
35363;DHT22;21463;47.480;8.214;2022-09-27T01:06:42;21.40;48.50
35363;DHT22;21463;47.480;8.214;2022-09-27T01:08:02;21.40;48.50
35363;DHT22;21463;47.480;8.214;2022-09-27T01:09:07;21.50;48.60
35363;DHT22;21463;47.480;8.214;2022-09-27T01:10:11;21.40;48.50
35363;DHT22;21463;47.480;8.214;2022-09-27T01:11:41;21.40;48.50
35363;DHT22;21463;47.480;8.214;2022-09-27T01:13:11;21.50;48.60
35363;DHT22;21463;47.480;8.214;2022-09-27T01:14:37;21.40;48.60
35363;DHT22;21463;47.480;8.214;2022-09-27T01:15:52;21.40;48.50
35363;DHT22;21463;47.480;8.214;2022-09-27T01:17:12;21.40;48.60
35363;DHT22;21463;47.480;8.214;2022-09-27T01:18:58;21.50;48.60
35363;DHT22;21463;47.480;8.214;2022-09-27T01:31:07;21.40;48.60
35363;DHT22;21463;47.480;8.214;2022-09-27T01:33:45;21.40;48.60
35363;DHT22;21463;47.480;8.214;2022-09-27T01:35:13;21.40;48.60
35363;DHT22;21463;47.480;8.214;2022-09-27T01:38:13;21.40;48.70
35363;DHT22;21463;47.480;8.214;2022-09-27T01:42:39;21.40;48.70
35363;DHT22;21463;47.480;8.214;2022-09-27T01:43:58;21.50;48.80
35363;DHT22;21463;47.480;8.214;2022-09-27T01:45:24;21.40;48.70
35363;DHT22;21463;47.480;8.214;2022-09-27T01:46:48;21.40;48.70
35363;DHT22;21463;47.480;8.214;2022-09-27T01:48:14;21.40;48.70
35363;DHT22;21463;47.480;8.214;2022-09-27T01:49:40;21.40;48.70
35363;DHT22;21463;47.480;8.214;2022-09-27T01:51:07;21.40;48.70
35363;DHT22;21463;47.480;8.214;2022-09-27T01:52:16;21.40;48.80
35363;DHT22;21463;47.480;8.214;2022-09-27T01:53:43;21.40;48.70
35363;DHT22;21463;47.480;8.214;2022-09-27T01:55:23;21.40;48.70
35363;DHT22;21463;47.480;8.214;2022-09-27T01:56:39;21.40;48.70
35363;DHT22;21463;47.480;8.214;2022-09-27T01:59:28;21.40;48.80
35363;DHT22;21463;47.480;8.214;2022-09-27T02:00:56;21.40;48.80
35363;DHT22;21463;47.480;8.214;2022-09-27T02:02:03;21.40;48.80
35363;DHT22;21463;47.480;8.214;2022-09-27T02:03:42;21.40;48.80
35363;DHT22;21463;47.480;8.214;2022-09-27T02:05:12;21.40;48.80
35363;DHT22;21463;47.480;8.214;2022-09-27T02:06:40;21.40;48.80
35363;DHT22;21463;47.480;8.214;2022-09-27T02:08:01;21.40;48.80
35363;DHT22;21463;47.480;8.214;2022-09-27T02:09:16;21.40;48.80
35363;DHT22;21463;47.480;8.214;2022-09-27T02:10:34;21.40;48.80
35363;DHT22;21463;47.480;8.214;2022-09-27T02:11:50;21.40;48.80
35363;DHT22;21463;47.480;8.214;2022-09-27T02:13:13;21.40;48.80
35363;DHT22;21463;47.480;8.214;2022-09-27T02:14:22;21.40;48.90
35363;DHT22;21463;47.480;8.214;2022-09-27T02:17:40;21.40;48.80
35363;DHT22;21463;47.480;8.214;2022-09-27T02:18:53;21.40;48.80
35363;DHT22;21463;47.480;8.214;2022-09-27T02:23:17;21.40;48.90
35363;DHT22;21463;47.480;8.214;2022-09-27T02:24:52;21.40;48.90
35363;DHT22;21463;47.480;8.214;2022-09-27T02:26:00;21.40;49.50
35363;DHT22;21463;47.480;8.214;2022-09-27T02:27:29;21.40;48.90
35363;DHT22;21463;47.480;8.214;2022-09-27T02:29:50;21.40;48.90
35363;DHT22;21463;47.480;8.214;2022-09-27T02:30:55;21.40;48.90
35363;DHT22;21463;47.480;8.214;2022-09-27T02:32:05;21.40;48.90
35363;DHT22;21463;47.480;8.214;2022-09-27T02:33:08;21.40;48.90
35363;DHT22;21463;47.480;8.214;2022-09-27T02:34:33;21.40;48.90
35363;DHT22;21463;47.480;8.214;2022-09-27T02:35:37;21.40;48.90
35363;DHT22;21463;47.480;8.214;2022-09-27T02:36:40;21.40;49.00
35363;DHT22;21463;47.480;8.214;2022-09-27T02:37:44;21.40;49.00
35363;DHT22;21463;47.480;8.214;2022-09-27T02:38:49;21.40;49.00
35363;DHT22;21463;47.480;8.214;2022-09-27T02:39:56;21.40;48.90
35363;DHT22;21463;47.480;8.214;2022-09-27T02:40:59;21.40;48.90
35363;DHT22;21463;47.480;8.214;2022-09-27T02:42:03;21.40;49.00
35363;DHT22;21463;47.480;8.214;2022-09-27T02:43:08;21.40;49.00
35363;DHT22;21463;47.480;8.214;2022-09-27T02:44:15;21.40;49.00
35363;DHT22;21463;47.480;8.214;2022-09-27T02:45:19;21.40;49.00
35363;DHT22;21463;47.480;8.214;2022-09-27T02:47:00;21.40;49.00
35363;DHT22;21463;47.480;8.214;2022-09-27T02:52:40;21.40;49.00
35363;DHT22;21463;47.480;8.214;2022-09-27T02:57:32;21.40;49.00
35363;DHT22;21463;47.480;8.214;2022-09-27T03:01:20;21.40;49.00
35363;DHT22;21463;47.480;8.214;2022-09-27T03:03:02;21.40;49.10
35363;DHT22;21463;47.480;8.214;2022-09-27T03:06:49;21.40;49.10
35363;DHT22;21463;47.480;8.214;2022-09-27T03:07:53;21.40;49.10
35363;DHT22;21463;47.480;8.214;2022-09-27T03:08:56;21.40;49.10
35363;DHT22;21463;47.480;8.214;2022-09-27T03:10:00;21.40;49.20
35363;DHT22;21463;47.480;8.214;2022-09-27T03:11:04;21.40;49.10
35363;DHT22;21463;47.480;8.214;2022-09-27T03:12:07;21.40;49.70
35363;DHT22;21463;47.480;8.214;2022-09-27T03:13:11;21.40;49.10
35363;DHT22;21463;47.480;8.214;2022-09-27T03:14:15;21.40;49.20
35363;DHT22;21463;47.480;8.214;2022-09-27T03:15:31;21.40;49.20
35363;DHT22;21463;47.480;8.214;2022-09-27T03:16:36;21.40;49.20
35363;DHT22;21463;47.480;8.214;2022-09-27T03:18:01;21.40;49.10
35363;DHT22;21463;47.480;8.214;2022-09-27T03:19:22;21.40;49.20
35363;DHT22;21463;47.480;8.214;2022-09-27T03:20:52;21.40;49.20
35363;DHT22;21463;47.480;8.214;2022-09-27T03:21:58;21.40;49.20
35363;DHT22;21463;47.480;8.214;2022-09-27T03:23:00;21.40;49.20
35363;DHT22;21463;47.480;8.214;2022-09-27T03:24:03;21.40;49.70
35363;DHT22;21463;47.480;8.214;2022-09-27T03:25:07;21.40;49.20
35363;DHT22;21463;47.480;8.214;2022-09-27T03:26:10;21.40;49.20
35363;DHT22;21463;47.480;8.214;2022-09-27T03:27:15;21.40;49.20
35363;DHT22;21463;47.480;8.214;2022-09-27T03:28:19;21.40;49.20
35363;DHT22;21463;47.480;8.214;2022-09-27T03:29:23;21.40;49.20
35363;DHT22;21463;47.480;8.214;2022-09-27T03:30:34;21.40;49.30
35363;DHT22;21463;47.480;8.214;2022-09-27T03:31:39;21.40;49.20
35363;DHT22;21463;47.480;8.214;2022-09-27T03:33:04;21.40;49.20
35363;DHT22;21463;47.480;8.214;2022-09-27T03:34:40;21.40;49.30
35363;DHT22;21463;47.480;8.214;2022-09-27T03:35:44;21.40;49.20
35363;DHT22;21463;47.480;8.214;2022-09-27T03:36:48;21.40;49.30
35363;DHT22;21463;47.480;8.214;2022-09-27T03:37:53;21.40;49.30
35363;DHT22;21463;47.480;8.214;2022-09-27T03:38:57;21.40;49.20
35363;DHT22;21463;47.480;8.214;2022-09-27T03:40:01;21.40;49.20
35363;DHT22;21463;47.480;8.214;2022-09-27T03:41:05;21.40;49.30
35363;DHT22;21463;47.480;8.214;2022-09-27T03:42:08;21.40;49.30
35363;DHT22;21463;47.480;8.214;2022-09-27T03:43:14;21.40;49.30
35363;DHT22;21463;47.480;8.214;2022-09-27T03:44:19;21.40;49.30
35363;DHT22;21463;47.480;8.214;2022-09-27T03:45:23;21.40;49.30
35363;DHT22;21463;47.480;8.214;2022-09-27T03:46:27;21.40;49.30
35363;DHT22;21463;47.480;8.214;2022-09-27T03:47:31;21.40;49.30
35363;DHT22;21463;47.480;8.214;2022-09-27T03:48:35;21.40;49.30
35363;DHT22;21463;47.480;8.214;2022-09-27T03:49:38;21.40;49.30
35363;DHT22;21463;47.480;8.214;2022-09-27T03:50:41;21.40;49.30
35363;DHT22;21463;47.480;8.214;2022-09-27T03:51:47;21.40;49.30
35363;DHT22;21463;47.480;8.214;2022-09-27T03:52:50;21.40;49.30
35363;DHT22;21463;47.480;8.214;2022-09-27T03:53:56;21.40;49.30
35363;DHT22;21463;47.480;8.214;2022-09-27T03:54:59;21.40;49.30
35363;DHT22;21463;47.480;8.214;2022-09-27T03:56:14;21.40;49.30
35363;DHT22;21463;47.480;8.214;2022-09-27T03:57:21;21.40;49.30
35363;DHT22;21463;47.480;8.214;2022-09-27T03:58:24;21.40;49.30
35363;DHT22;21463;47.480;8.214;2022-09-27T03:59:27;21.40;49.30
35363;DHT22;21463;47.480;8.214;2022-09-27T04:00:57;21.40;49.30
35363;DHT22;21463;47.480;8.214;2022-09-27T04:02:01;21.40;49.30
35363;DHT22;21463;47.480;8.214;2022-09-27T04:03:24;21.40;49.30
35363;DHT22;21463;47.480;8.214;2022-09-27T04:04:47;21.40;49.30
35363;DHT22;21463;47.480;8.214;2022-09-27T04:05:49;21.40;49.30
35363;DHT22;21463;47.480;8.214;2022-09-27T04:06:56;21.40;49.30
35363;DHT22;21463;47.480;8.214;2022-09-27T04:08:01;21.40;49.30
35363;DHT22;21463;47.480;8.214;2022-09-27T04:09:09;21.40;49.30
35363;DHT22;21463;47.480;8.214;2022-09-27T04:10:29;21.40;49.30
35363;DHT22;21463;47.480;8.214;2022-09-27T04:11:53;21.40;49.30
35363;DHT22;21463;47.480;8.214;2022-09-27T04:12:57;21.40;49.30
35363;DHT22;21463;47.480;8.214;2022-09-27T04:14:08;21.40;49.30
35363;DHT22;21463;47.480;8.214;2022-09-27T04:15:35;21.40;49.30
35363;DHT22;21463;47.480;8.214;2022-09-27T04:17:04;21.40;49.30
35363;DHT22;21463;47.480;8.214;2022-09-27T04:18:28;21.40;49.30
35363;DHT22;21463;47.480;8.214;2022-09-27T04:19:50;21.40;49.30
35363;DHT22;21463;47.480;8.214;2022-09-27T04:20:53;21.40;49.30
35363;DHT22;21463;47.480;8.214;2022-09-27T04:21:58;21.40;49.30
35363;DHT22;21463;47.480;8.214;2022-09-27T04:23:02;21.40;49.30
35363;DHT22;21463;47.480;8.214;2022-09-27T04:24:05;21.40;49.30
35363;DHT22;21463;47.480;8.214;2022-09-27T04:25:09;21.40;49.30
35363;DHT22;21463;47.480;8.214;2022-09-27T04:26:14;21.40;49.30
35363;DHT22;21463;47.480;8.214;2022-09-27T04:27:33;21.40;49.30
35363;DHT22;21463;47.480;8.214;2022-09-27T04:28:36;21.40;49.30
35363;DHT22;21463;47.480;8.214;2022-09-27T04:29:39;21.40;49.30
35363;DHT22;21463;47.480;8.214;2022-09-27T04:31:13;21.40;49.30
35363;DHT22;21463;47.480;8.214;2022-09-27T04:32:22;21.40;49.30
35363;DHT22;21463;47.480;8.214;2022-09-27T04:33:43;21.40;49.30
35363;DHT22;21463;47.480;8.214;2022-09-27T04:34:54;21.40;49.30
35363;DHT22;21463;47.480;8.214;2022-09-27T04:36:20;21.40;49.30
35363;DHT22;21463;47.480;8.214;2022-09-27T04:37:49;21.40;49.30
35363;DHT22;21463;47.480;8.214;2022-09-27T04:39:01;21.40;49.30
35363;DHT22;21463;47.480;8.214;2022-09-27T04:40:05;21.40;49.30
35363;DHT22;21463;47.480;8.214;2022-09-27T04:41:30;21.30;49.20
35363;DHT22;21463;47.480;8.214;2022-09-27T04:42:34;21.40;49.30
35363;DHT22;21463;47.480;8.214;2022-09-27T04:43:37;21.40;49.30
35363;DHT22;21463;47.480;8.214;2022-09-27T04:44:40;21.40;49.30
35363;DHT22;21463;47.480;8.214;2022-09-27T04:45:44;21.40;49.30
35363;DHT22;21463;47.480;8.214;2022-09-27T04:46:48;21.30;49.20
35363;DHT22;21463;47.480;8.214;2022-09-27T04:47:51;21.40;49.30
35363;DHT22;21463;47.480;8.214;2022-09-27T04:48:56;21.40;49.20
35363;DHT22;21463;47.480;8.214;2022-09-27T04:49:59;21.40;49.20
35363;DHT22;21463;47.480;8.214;2022-09-27T04:51:03;21.40;49.30
35363;DHT22;21463;47.480;8.214;2022-09-27T04:52:07;21.30;49.20
35363;DHT22;21463;47.480;8.214;2022-09-27T04:53:13;21.40;49.20
35363;DHT22;21463;47.480;8.214;2022-09-27T04:54:17;21.40;49.30
35363;DHT22;21463;47.480;8.214;2022-09-27T04:55:32;21.40;49.20
35363;DHT22;21463;47.480;8.214;2022-09-27T04:56:35;21.40;49.30
35363;DHT22;21463;47.480;8.214;2022-09-27T04:57:39;21.40;49.30
35363;DHT22;21463;47.480;8.214;2022-09-27T04:58:52;21.40;49.20
35363;DHT22;21463;47.480;8.214;2022-09-27T04:59:55;21.40;49.20
35363;DHT22;21463;47.480;8.214;2022-09-27T05:01:00;21.40;49.20
35363;DHT22;21463;47.480;8.214;2022-09-27T05:02:24;21.40;49.20
35363;DHT22;21463;47.480;8.214;2022-09-27T05:04:19;21.40;49.20
35363;DHT22;21463;47.480;8.214;2022-09-27T05:05:26;21.50;49.30
35363;DHT22;21463;47.480;8.214;2022-09-27T05:06:33;21.40;49.20
35363;DHT22;21463;47.480;8.214;2022-09-27T05:07:42;21.40;49.20
35363;DHT22;21463;47.480;8.214;2022-09-27T05:08:57;21.40;49.20
35363;DHT22;21463;47.480;8.214;2022-09-27T05:10:06;21.40;49.20
35363;DHT22;21463;47.480;8.214;2022-09-27T05:11:09;21.40;49.20
35363;DHT22;21463;47.480;8.214;2022-09-27T05:12:13;21.40;49.20
35363;DHT22;21463;47.480;8.214;2022-09-27T05:13:48;21.40;49.20
35363;DHT22;21463;47.480;8.214;2022-09-27T05:14:52;21.30;49.70
35363;DHT22;21463;47.480;8.214;2022-09-27T05:16:35;21.40;49.20
35363;DHT22;21463;47.480;8.214;2022-09-27T05:17:57;21.30;49.10
35363;DHT22;21463;47.480;8.214;2022-09-27T05:19:07;21.30;49.10
35363;DHT22;21463;47.480;8.214;2022-09-27T05:20:30;21.30;49.10
35363;DHT22;21463;47.480;8.214;2022-09-27T05:21:43;21.30;49.10
35363;DHT22;21463;47.480;8.214;2022-09-27T05:22:48;21.40;49.10
35363;DHT22;21463;47.480;8.214;2022-09-27T05:23:52;21.40;49.10
35363;DHT22;21463;47.480;8.214;2022-09-27T05:24:55;21.40;49.10
35363;DHT22;21463;47.480;8.214;2022-09-27T05:26:05;21.40;49.10
35363;DHT22;21463;47.480;8.214;2022-09-27T05:27:13;21.40;49.10
35363;DHT22;21463;47.480;8.214;2022-09-27T05:28:24;21.30;49.00
35363;DHT22;21463;47.480;8.214;2022-09-27T05:29:28;21.30;49.00
35363;DHT22;21463;47.480;8.214;2022-09-27T05:30:56;21.40;49.10
35363;DHT22;21463;47.480;8.214;2022-09-27T05:32:01;21.40;49.00
35363;DHT22;21463;47.480;8.214;2022-09-27T05:33:03;21.40;49.00
35363;DHT22;21463;47.480;8.214;2022-09-27T05:34:25;21.30;49.00
35363;DHT22;21463;47.480;8.214;2022-09-27T05:35:35;21.40;49.00
35363;DHT22;21463;47.480;8.214;2022-09-27T05:36:38;21.40;49.00
35363;DHT22;21463;47.480;8.214;2022-09-27T05:37:42;21.40;49.00
35363;DHT22;21463;47.480;8.214;2022-09-27T05:38:45;21.40;49.00
35363;DHT22;21463;47.480;8.214;2022-09-27T05:39:48;21.40;49.00
35363;DHT22;21463;47.480;8.214;2022-09-27T05:40:51;21.40;49.00
35363;DHT22;21463;47.480;8.214;2022-09-27T05:41:55;21.40;49.00
35363;DHT22;21463;47.480;8.214;2022-09-27T05:43:00;21.40;49.00
35363;DHT22;21463;47.480;8.214;2022-09-27T05:44:03;21.40;49.00
35363;DHT22;21463;47.480;8.214;2022-09-27T05:45:08;21.30;48.90
35363;DHT22;21463;47.480;8.214;2022-09-27T05:46:15;21.40;49.00
35363;DHT22;21463;47.480;8.214;2022-09-27T05:47:20;21.30;48.90
35363;DHT22;21463;47.480;8.214;2022-09-27T05:48:23;21.40;49.00
35363;DHT22;21463;47.480;8.214;2022-09-27T05:49:35;21.40;48.90
35363;DHT22;21463;47.480;8.214;2022-09-27T05:50:39;21.40;48.90
35363;DHT22;21463;47.480;8.214;2022-09-27T05:51:43;21.30;48.90
35363;DHT22;21463;47.480;8.214;2022-09-27T05:52:47;21.40;48.90
35363;DHT22;21463;47.480;8.214;2022-09-27T05:53:52;21.30;48.80
35363;DHT22;21463;47.480;8.214;2022-09-27T05:55:01;21.40;48.90
35363;DHT22;21463;47.480;8.214;2022-09-27T05:56:07;21.30;48.80
35363;DHT22;21463;47.480;8.214;2022-09-27T05:57:31;21.40;48.90
35363;DHT22;21463;47.480;8.214;2022-09-27T05:58:39;21.30;48.90
35363;DHT22;21463;47.480;8.214;2022-09-27T05:59:51;21.40;48.90
35363;DHT22;21463;47.480;8.214;2022-09-27T06:00:54;21.40;48.90
35363;DHT22;21463;47.480;8.214;2022-09-27T06:02:23;21.40;48.90
35363;DHT22;21463;47.480;8.214;2022-09-27T06:03:37;21.30;48.80
35363;DHT22;21463;47.480;8.214;2022-09-27T06:04:51;21.40;48.90
35363;DHT22;21463;47.480;8.214;2022-09-27T06:06:09;21.30;48.80
35363;DHT22;21463;47.480;8.214;2022-09-27T06:07:21;21.40;49.40
35363;DHT22;21463;47.480;8.214;2022-09-27T06:08:24;21.40;48.80
35363;DHT22;21463;47.480;8.214;2022-09-27T06:09:26;21.40;48.80
35363;DHT22;21463;47.480;8.214;2022-09-27T06:10:32;21.30;48.80
35363;DHT22;21463;47.480;8.214;2022-09-27T06:11:37;21.30;48.70
35363;DHT22;21463;47.480;8.214;2022-09-27T06:12:45;21.30;48.70
35363;DHT22;21463;47.480;8.214;2022-09-27T06:14:08;21.30;48.70
35363;DHT22;21463;47.480;8.214;2022-09-27T06:15:21;21.30;48.80
35363;DHT22;21463;47.480;8.214;2022-09-27T06:16:24;21.40;48.80
35363;DHT22;21463;47.480;8.214;2022-09-27T06:17:28;21.30;48.70
35363;DHT22;21463;47.480;8.214;2022-09-27T06:18:33;21.40;48.70
35363;DHT22;21463;47.480;8.214;2022-09-27T06:19:35;21.40;48.70
35363;DHT22;21463;47.480;8.214;2022-09-27T06:20:39;21.30;48.70
35363;DHT22;21463;47.480;8.214;2022-09-27T06:21:49;21.40;48.70
35363;DHT22;21463;47.480;8.214;2022-09-27T06:22:54;21.30;48.70
35363;DHT22;21463;47.480;8.214;2022-09-27T06:23:58;21.40;48.70
35363;DHT22;21463;47.480;8.214;2022-09-27T06:25:06;21.30;48.70
35363;DHT22;21463;47.480;8.214;2022-09-27T06:26:27;21.30;48.70
35363;DHT22;21463;47.480;8.214;2022-09-27T06:27:42;21.40;48.80
35363;DHT22;21463;47.480;8.214;2022-09-27T06:29:02;21.30;48.70
35363;DHT22;21463;47.480;8.214;2022-09-27T06:30:07;21.30;48.60
35363;DHT22;21463;47.480;8.214;2022-09-27T06:31:28;21.30;48.70
35363;DHT22;21463;47.480;8.214;2022-09-27T06:32:59;21.40;48.70
35363;DHT22;21463;47.480;8.214;2022-09-27T06:34:13;21.30;48.70
35363;DHT22;21463;47.480;8.214;2022-09-27T06:35:19;21.30;48.60
35363;DHT22;21463;47.480;8.214;2022-09-27T06:36:22;21.30;48.60
35363;DHT22;21463;47.480;8.214;2022-09-27T06:37:25;21.30;48.60
35363;DHT22;21463;47.480;8.214;2022-09-27T06:38:29;21.40;48.60
35363;DHT22;21463;47.480;8.214;2022-09-27T06:39:41;21.30;48.60
35363;DHT22;21463;47.480;8.214;2022-09-27T06:41:19;21.30;48.50
35363;DHT22;21463;47.480;8.214;2022-09-27T06:42:51;21.40;48.60
35363;DHT22;21463;47.480;8.214;2022-09-27T06:44:11;21.30;48.60
35363;DHT22;21463;47.480;8.214;2022-09-27T06:45:33;21.30;48.60
35363;DHT22;21463;47.480;8.214;2022-09-27T06:47:16;21.40;48.60
35363;DHT22;21463;47.480;8.214;2022-09-27T06:48:40;21.30;48.60
35363;DHT22;21463;47.480;8.214;2022-09-27T06:49:49;21.40;48.60
35363;DHT22;21463;47.480;8.214;2022-09-27T06:50:53;21.30;48.50
35363;DHT22;21463;47.480;8.214;2022-09-27T06:51:59;21.30;48.50
35363;DHT22;21463;47.480;8.214;2022-09-27T06:53:06;21.30;48.60
35363;DHT22;21463;47.480;8.214;2022-09-27T06:54:09;21.30;48.50
35363;DHT22;21463;47.480;8.214;2022-09-27T06:55:15;21.30;48.50
35363;DHT22;21463;47.480;8.214;2022-09-27T06:56:19;21.30;48.50
35363;DHT22;21463;47.480;8.214;2022-09-27T06:57:24;21.30;48.50
35363;DHT22;21463;47.480;8.214;2022-09-27T06:58:46;21.30;48.50
35363;DHT22;21463;47.480;8.214;2022-09-27T07:00:16;21.30;48.50
35363;DHT22;21463;47.480;8.214;2022-09-27T07:01:44;21.30;48.50
35363;DHT22;21463;47.480;8.214;2022-09-27T07:02:57;21.30;48.50
35363;DHT22;21463;47.480;8.214;2022-09-27T07:04:21;21.30;48.50
35363;DHT22;21463;47.480;8.214;2022-09-27T07:05:40;21.30;48.50
35363;DHT22;21463;47.480;8.214;2022-09-27T07:07:02;21.30;48.50
35363;DHT22;21463;47.480;8.214;2022-09-27T07:08:12;21.30;48.40
35363;DHT22;21463;47.480;8.214;2022-09-27T07:09:17;21.30;48.50
35363;DHT22;21463;47.480;8.214;2022-09-27T07:10:20;21.30;48.40
35363;DHT22;21463;47.480;8.214;2022-09-27T07:11:24;21.30;48.40
35363;DHT22;21463;47.480;8.214;2022-09-27T07:12:28;21.30;48.40
35363;DHT22;21463;47.480;8.214;2022-09-27T07:13:32;21.30;48.40
35363;DHT22;21463;47.480;8.214;2022-09-27T07:14:36;21.30;48.40
35363;DHT22;21463;47.480;8.214;2022-09-27T07:15:40;21.30;48.40
35363;DHT22;21463;47.480;8.214;2022-09-27T07:16:47;21.30;48.40
35363;DHT22;21463;47.480;8.214;2022-09-27T07:17:56;21.40;48.40
35363;DHT22;21463;47.480;8.214;2022-09-27T07:19:03;21.30;48.40
35363;DHT22;21463;47.480;8.214;2022-09-27T07:20:09;21.30;48.30
35363;DHT22;21463;47.480;8.214;2022-09-27T07:21:13;21.30;48.40
35363;DHT22;21463;47.480;8.214;2022-09-27T07:22:19;21.30;48.30
35363;DHT22;21463;47.480;8.214;2022-09-27T07:23:28;21.30;48.40
35363;DHT22;21463;47.480;8.214;2022-09-27T07:24:31;21.30;48.30
35363;DHT22;21463;47.480;8.214;2022-09-27T07:25:35;21.30;48.30
35363;DHT22;21463;47.480;8.214;2022-09-27T07:26:38;21.30;48.30
35363;DHT22;21463;47.480;8.214;2022-09-27T07:27:43;21.30;48.30
35363;DHT22;21463;47.480;8.214;2022-09-27T07:28:47;21.30;48.30
35363;DHT22;21463;47.480;8.214;2022-09-27T07:29:51;21.30;48.30
35363;DHT22;21463;47.480;8.214;2022-09-27T07:30:55;21.30;48.30
35363;DHT22;21463;47.480;8.214;2022-09-27T07:31:59;21.30;48.30
35363;DHT22;21463;47.480;8.214;2022-09-27T07:33:04;21.30;48.30
35363;DHT22;21463;47.480;8.214;2022-09-27T07:34:08;21.30;48.90
35363;DHT22;21463;47.480;8.214;2022-09-27T07:35:12;21.40;48.40
35363;DHT22;21463;47.480;8.214;2022-09-27T07:36:18;21.30;48.30
35363;DHT22;21463;47.480;8.214;2022-09-27T07:37:21;21.30;48.30
35363;DHT22;21463;47.480;8.214;2022-09-27T07:38:24;21.30;48.30
35363;DHT22;21463;47.480;8.214;2022-09-27T07:39:27;21.30;48.20
35363;DHT22;21463;47.480;8.214;2022-09-27T07:40:34;21.30;48.20
35363;DHT22;21463;47.480;8.214;2022-09-27T07:41:52;21.40;48.30
35363;DHT22;21463;47.480;8.214;2022-09-27T07:42:56;21.40;48.20
35363;DHT22;21463;47.480;8.214;2022-09-27T07:44:00;21.40;48.30
35363;DHT22;21463;47.480;8.214;2022-09-27T07:45:05;21.40;48.30
35363;DHT22;21463;47.480;8.214;2022-09-27T07:46:33;21.40;48.40
35363;DHT22;21463;47.480;8.214;2022-09-27T07:47:52;21.40;48.30
35363;DHT22;21463;47.480;8.214;2022-09-27T07:49:03;21.40;48.90
35363;DHT22;21463;47.480;8.214;2022-09-27T07:50:24;21.40;48.30
35363;DHT22;21463;47.480;8.214;2022-09-27T07:51:33;21.40;48.30
35363;DHT22;21463;47.480;8.214;2022-09-27T07:52:54;21.40;48.30
35363;DHT22;21463;47.480;8.214;2022-09-27T07:54:15;21.40;48.30
35363;DHT22;21463;47.480;8.214;2022-09-27T07:55:23;21.40;48.30
35363;DHT22;21463;47.480;8.214;2022-09-27T07:56:37;21.40;48.30
35363;DHT22;21463;47.480;8.214;2022-09-27T07:57:42;21.40;48.30
35363;DHT22;21463;47.480;8.214;2022-09-27T07:58:46;21.40;48.30
35363;DHT22;21463;47.480;8.214;2022-09-27T07:59:49;21.40;48.40
35363;DHT22;21463;47.480;8.214;2022-09-27T08:00:55;21.50;48.40
35363;DHT22;21463;47.480;8.214;2022-09-27T08:02:00;21.40;48.40
35363;DHT22;21463;47.480;8.214;2022-09-27T08:03:07;21.50;48.50
35363;DHT22;21463;47.480;8.214;2022-09-27T08:04:15;21.50;48.50
35363;DHT22;21463;47.480;8.214;2022-09-27T08:05:18;21.40;48.40
35363;DHT22;21463;47.480;8.214;2022-09-27T08:06:22;21.50;48.50
35363;DHT22;21463;47.480;8.214;2022-09-27T08:07:27;21.50;48.60